Time;durP1;ratioP1;P1;durP2;ratioP2;P2;SDS_P1;SDS_P2;PMS_P1;PMS_P2;Temp;Humidity;BMP_temperature;BMP_pressure;BME280_temperature;BME280_humidity;BME280_pressure;Samples;Min_cycle;Max_cycle;Signal;HPM_P1;HPM_P2
2022/03/24 00:00:39;;;;;;;16.27;9.83;;;5.70;48.00;;;5.50;41.56;95780.78;5073623;28;20529;-58
2022/03/24 00:03:06;;;;;;;19.60;9.43;;;5.60;48.60;;;5.46;40.40;95774.03;5076786;28;20707;-57
2022/03/24 00:05:34;;;;;;;28.97;9.77;;;5.60;48.50;;;5.44;40.80;95772.44;5074526;28;20447;-57
2022/03/24 00:08:01;;;;;;;18.73;8.40;;;5.60;48.20;;;5.42;40.70;95769.06;5073606;28;20498;-57
2022/03/24 00:10:30;;;;;;;19.63;9.20;;;5.50;48.00;;;5.38;41.23;95764.03;5080365;28;20457;-58
2022/03/24 00:12:57;;;;;;;27.40;13.33;;;5.50;48.10;;;5.39;41.07;95759.63;5069205;28;20536;-57
2022/03/24 00:15:24;;;;;;;76.10;29.63;;;5.50;48.60;;;5.36;41.41;95755.47;5075897;28;20458;-57
2022/03/24 00:17:52;;;;;;;26.00;14.27;;;5.50;49.10;;;5.35;41.56;95758.97;5075197;28;20514;-57
2022/03/24 00:20:20;;;;;;;21.30;11.07;;;5.50;49.10;;;5.33;41.60;95753.03;5070869;28;20612;-56
2022/03/24 00:22:47;;;;;;;20.57;10.67;;;5.50;49.20;;;5.31;41.67;95749.63;5074333;28;20486;-57
2022/03/24 00:25:14;;;;;;;20.40;11.10;;;5.40;49.10;;;5.30;42.02;95745.38;5075365;28;20586;-56
2022/03/24 00:27:43;;;;;;;21.73;11.63;;;5.40;49.70;;;5.29;42.09;95750.66;5067173;28;20494;-57
2022/03/24 00:30:12;;;;;;;27.73;11.87;;;5.40;50.20;;;5.24;42.19;95745.72;5072153;28;20489;-56
2022/03/24 00:32:39;;;;;;;22.17;9.83;;;5.40;49.80;;;5.21;42.72;95735.44;5064394;28;21006;-58
2022/03/24 00:35:08;;;;;;;18.53;9.87;;;5.40;50.30;;;5.16;42.09;95737.47;5072335;28;20512;-57
2022/03/24 00:37:35;;;;;;;19.90;8.90;;;5.30;49.70;;;5.12;41.56;95735.97;5076866;28;20482;-57
2022/03/24 00:40:06;;;;;;;12.97;7.37;;;5.30;49.50;;;5.07;42.09;95735.38;5069192;28;20541;-56
2022/03/24 00:42:36;;;;;;;15.67;8.73;;;5.20;49.70;;;5.04;42.66;95744.22;5073230;28;20556;-57
2022/03/24 00:45:09;;;;;;;22.33;8.80;;;5.20;50.20;;;5.00;42.34;95733.13;5079392;28;20454;-57
2022/03/24 00:47:37;;;;;;;25.33;9.70;;;5.10;50.30;;;4.99;42.50;95730.59;5067871;28;20501;-57
2022/03/24 00:50:05;;;;;;;30.63;14.27;;;5.10;50.10;;;4.97;42.56;95728.06;5070976;28;20748;-58
2022/03/24 00:52:32;;;;;;;41.27;17.63;;;5.10;50.40;;;4.96;42.11;95725.53;5070257;28;20475;-58
2022/03/24 00:54:59;;;;;;;46.27;19.07;;;5.10;50.20;;;4.93;42.52;95726.53;5071810;28;20608;-57
2022/03/24 00:57:27;;;;;;;49.23;18.83;;;5.10;50.30;;;4.90;42.78;95720.66;5066562;28;20486;-58
2022/03/24 00:59:54;;;;;;;40.07;19.43;;;5.10;50.50;;;4.87;42.18;95726.88;5079005;28;20458;-58
2022/03/24 01:02:25;;;;;;;50.60;21.20;;;5.00;50.20;;;4.87;42.17;95732.09;5068997;28;20497;-55
2022/03/24 01:04:52;;;;;;;42.13;19.70;;;5.00;50.00;;;4.86;42.49;95727.78;5068852;28;20450;-58
2022/03/24 01:07:19;;;;;;;46.80;19.53;;;5.00;50.10;;;4.84;42.78;95724.44;5077218;28;20493;-57
2022/03/24 01:09:47;;;;;;;61.80;19.33;;;5.00;50.20;;;4.80;42.41;95729.00;5066066;28;20462;-58
2022/03/24 01:12:14;;;;;;;35.00;19.30;;;4.90;50.20;;;4.77;42.64;95725.69;5068898;28;20474;-57
2022/03/24 01:14:41;;;;;;;32.43;15.27;;;4.90;50.20;;;4.74;42.20;95725.84;5079201;28;20454;-57
2022/03/24 01:17:10;;;;;;;33.47;14.63;;;4.90;50.40;;;4.70;42.97;95725.19;5071161;28;20482;-57
2022/03/24 01:19:39;;;;;;;27.13;13.80;;;4.90;50.70;;;4.66;42.79;95715.84;5062234;28;20909;-59
2022/03/24 01:22:06;;;;;;;24.60;12.50;;;4.80;50.80;;;4.63;42.92;95711.66;5066919;28;20484;-57
2022/03/24 01:24:37;;;;;;;18.67;9.47;;;4.80;50.80;;;4.60;42.85;95717.03;5069922;28;20963;-56
2022/03/24 01:27:05;;;;;;;17.30;8.87;;;4.80;50.90;;;4.57;43.04;95714.59;5068435;28;21087;-56
2022/03/24 01:29:33;;;;;;;18.03;8.20;;;4.80;51.00;;;4.54;43.42;95712.16;5070649;28;20465;-57
2022/03/24 01:32:00;;;;;;;14.53;8.23;;;4.70;51.50;;;4.49;43.50;95703.72;5070080;28;20482;-57
2022/03/24 01:34:27;;;;;;;35.27;16.67;;;4.70;51.30;;;4.44;43.67;95703.13;5074896;28;20491;-58
2022/03/24 01:36:56;;;;;;;479.13;182.87;;;4.60;51.50;;;4.40;43.03;95696.41;5074376;28;20490;-57
2022/03/24 01:39:23;;;;;;;269.40;90.93;;;4.60;51.50;;;4.37;44.01;95697.44;5066987;28;20794;-57
2022/03/24 01:41:51;;;;;;;89.00;32.20;;;4.50;51.90;;;4.33;44.39;95690.69;5078306;28;20554;-57
2022/03/24 01:44:21;;;;;;;58.33;23.60;;;4.50;52.50;;;4.29;43.88;95697.84;5068027;28;20545;-57
2022/03/24 01:46:59;;;;;;;42.07;12.73;;;4.50;52.20;;;4.26;44.26;95695.38;5070066;28;20482;-57
2022/03/24 01:49:27;;;;;;;15.53;8.60;;;4.40;52.20;;;4.23;43.66;95699.91;5062341;28;20533;-57
2022/03/24 01:51:55;;;;;;;28.27;9.53;;;4.40;52.20;;;4.20;43.55;95695.72;5065720;28;21033;-57
2022/03/24 01:54:23;;;;;;;19.00;9.20;;;4.40;52.20;;;4.16;44.17;95688.97;5073949;28;20466;-58
2022/03/24 01:56:51;;;;;;;37.17;10.40;;;4.30;52.00;;;4.14;43.88;95690.81;5073670;28;20482;-56
2022/03/24 01:59:19;;;;;;;19.70;9.90;;;4.30;52.20;;;4.12;43.89;95690.91;5065236;28;21006;-58
2022/03/24 02:01:47;;;;;;;29.80;11.67;;;4.30;52.30;;;4.11;44.07;95685.78;5072617;28;20734;-57
2022/03/24 02:04:15;;;;;;;19.80;10.67;;;4.30;52.60;;;4.11;44.25;95693.59;5074589;28;20462;-57
2022/03/24 02:06:42;;;;;;;30.17;10.57;;;4.30;52.90;;;4.10;44.43;95697.94;5066877;28;20523;-57
2022/03/24 02:09:11;;;;;;;17.53;11.17;;;4.30;53.00;;;4.10;45.03;95694.50;5076965;28;20494;-57
2022/03/24 02:11:39;;;;;;;20.80;10.53;;;4.20;53.30;;;4.09;44.92;95696.28;5066084;28;20485;-56
2022/03/24 02:14:07;;;;;;;21.73;11.13;;;4.30;53.30;;;4.09;44.63;95696.28;5063292;28;20536;-56
2022/03/24 02:16:35;;;;;;;26.20;10.37;;;4.30;53.00;;;4.09;44.99;95693.66;5070213;28;20470;-56
2022/03/24 02:19:11;;;;;;;23.10;10.23;;;4.20;52.90;;;4.10;45.00;95684.91;5074332;28;20486;-57
2022/03/24 02:21:39;;;;;;;21.93;11.33;;;4.20;53.40;;;4.09;44.78;95685.00;5066316;28;20494;-58
2022/03/24 02:24:09;;;;;;;28.90;12.30;;;4.20;52.90;;;4.08;45.42;95686.78;5074014;28;20532;-58
2022/03/24 02:26:36;;;;;;;27.67;13.37;;;4.20;53.40;;;4.05;45.27;95689.53;5069660;28;21014;-58
2022/03/24 02:29:06;;;;;;;35.90;13.97;;;4.20;53.40;;;4.02;45.21;95683.66;5066773;28;20585;-58
2022/03/24 02:31:34;;;;;;;62.03;27.27;;;4.20;53.40;;;4.02;45.00;95681.88;5069866;28;20481;-57
2022/03/24 02:36:48;;;;;;;48.10;20.93;;;4.20;53.40;;;4.00;44.83;95683.75;5070180;28;20624;-57
2022/03/24 02:39:17;;;;;;;37.80;16.03;;;4.20;54.00;;;4.00;44.68;95683.75;5076019;28;20570;-57
2022/03/24 02:41:49;;;;;;;33.90;13.87;;;4.20;53.80;;;3.98;45.22;95689.94;5068659;28;20561;-58
2022/03/24 02:44:17;;;;;;;25.13;12.80;;;4.10;54.50;;;3.95;46.00;95690.94;5066345;28;20455;-56
2022/03/24 02:46:44;;;;;;;23.77;10.90;;;4.10;54.40;;;3.92;45.96;95691.94;5077971;28;20510;-61
2022/03/24 02:49:12;;;;;;;23.43;11.20;;;4.10;54.20;;;3.90;45.42;95692.94;5065786;28;20494;-56
2022/03/24 02:51:39;;;;;;;24.90;8.97;;;4.10;54.10;;;3.88;44.93;95682.59;5070290;28;20996;-57
2022/03/24 02:54:07;;;;;;;16.50;9.10;;;4.10;54.20;;;3.87;45.17;95675.72;5070210;28;21271;-57
2022/03/24 02:56:36;;;;;;;15.13;8.83;;;4.10;54.30;;;3.86;45.82;95671.44;5064214;28;20478;-57
2022/03/24 02:59:04;;;;;;;15.27;8.10;;;4.00;54.50;;;3.85;46.25;95668.91;5069771;28;20539;-58
2022/03/24 03:01:31;;;;;;;25.23;9.10;;;4.00;54.50;;;3.85;45.08;95671.50;5072346;28;20482;-57
2022/03/24 03:03:59;;;;;;;14.63;7.30;;;4.00;54.40;;;3.84;45.37;95678.50;5068532;28;20459;-57
2022/03/24 03:06:26;;;;;;;20.03;8.37;;;4.00;54.30;;;3.82;44.88;95667.31;5071207;28;20550;-58
2022/03/24 03:08:54;;;;;;;14.80;8.67;;;4.00;54.20;;;3.81;44.96;95669.97;5074218;28;21010;-57
2022/03/24 03:11:21;;;;;;;23.00;8.90;;;4.00;54.10;;;3.82;44.85;95675.09;5066154;28;20481;-57
2022/03/24 03:13:52;;;;;;;13.73;7.20;;;4.00;53.80;;;3.81;45.56;95668.25;5072208;28;20500;-58
2022/03/24 03:16:19;;;;;;;12.10;5.73;;;4.00;54.10;;;3.82;45.71;95677.72;5061096;28;20459;-58
2022/03/24 03:18:47;;;;;;;16.00;6.00;;;4.00;53.80;;;3.81;45.13;95673.44;5065850;28;20454;-57
2022/03/24 03:21:14;;;;;;;20.53;7.63;;;4.00;53.80;;;3.80;46.01;95676.97;5075177;28;20458;-57
2022/03/24 03:23:43;;;;;;;13.30;7.00;;;4.00;54.50;;;3.79;44.93;95679.63;5072497;28;20539;-57
2022/03/24 03:26:11;;;;;;;8.23;6.63;;;4.00;54.00;;;3.77;45.47;95677.94;5070781;28;20458;-57
2022/03/24 03:28:38;;;;;;;12.30;6.80;;;3.90;53.90;;;3.73;45.93;95668.63;5069299;28;20486;-56
2022/03/24 03:31:07;;;;;;;13.77;6.43;;;3.90;54.10;;;3.71;45.28;95682.63;5064740;28;20975;-57
2022/03/24 03:33:34;;;;;;;18.47;7.17;;;3.90;53.80;;;3.70;45.23;95673.13;5061976;28;20473;-57
2022/03/24 03:36:02;;;;;;;9.37;6.03;;;3.90;53.90;;;3.68;44.88;95682.78;5070460;28;20457;-56
2022/03/24 03:38:29;;;;;;;13.00;6.80;;;3.90;54.20;;;3.67;45.22;95681.09;5064842;28;20489;-57
2022/03/24 03:40:56;;;;;;;11.77;6.40;;;3.90;54.20;;;3.66;45.01;95677.66;5064870;28;20465;-57
2022/03/24 03:43:24;;;;;;;10.53;5.93;;;3.80;54.20;;;3.63;44.95;95680.41;5074382;28;20501;-57
2022/03/24 03:45:51;;;;;;;17.47;6.70;;;3.80;54.40;;;3.61;45.70;95678.78;5062408;28;20535;-56
2022/03/24 03:48:20;;;;;;;12.10;6.50;;;3.80;54.80;;;3.58;45.06;95682.41;5068555;28;20489;-57
2022/03/24 03:50:47;;;;;;;18.93;6.70;;;3.80;54.40;;;3.56;45.32;95684.22;5069001;28;20454;-57
2022/03/24 03:53:14;;;;;;;18.00;7.20;;;3.80;54.80;;;3.54;45.25;95676.50;5069019;28;20478;-58
2022/03/24 03:55:42;;;;;;;18.13;7.37;;;3.80;54.70;;;3.53;45.32;95680.03;5072925;28;20871;-57
2022/03/24 03:58:10;;;;;;;18.63;8.60;;;3.70;54.60;;;3.52;46.28;95677.53;5070241;28;21034;-56
2022/03/24 04:03:25;;;;;;;22.47;8.67;;;3.70;54.80;;;3.50;45.95;95675.00;5073517;28;20486;-56
2022/03/24 04:05:53;;;;;;;20.40;8.50;;;3.70;54.70;;;3.50;45.96;95674.13;5068633;28;20497;-57
2022/03/24 04:08:21;;;;;;;15.03;7.70;;;3.70;55.10;;;3.47;46.21;95671.69;5066121;28;20610;-56
2022/03/24 04:10:49;;;;;;;19.57;7.97;;;3.70;55.50;;;3.45;46.88;95665.72;5071610;28;20486;-57
2022/03/24 04:13:17;;;;;;;17.73;9.07;;;3.70;55.60;;;3.42;46.36;95666.72;5075477;28;20566;-57
2022/03/24 04:15:45;;;;;;;20.50;8.27;;;3.60;55.40;;;3.39;45.68;95674.66;5070577;28;21230;-57
2022/03/24 04:18:12;;;;;;;13.70;7.60;;;3.60;55.30;;;3.38;45.87;95683.41;5073882;28;20889;-57
2022/03/24 04:20:41;;;;;;;21.47;9.53;;;3.60;55.50;;;3.37;45.87;95686.91;5071688;28;20831;-57
2022/03/24 04:23:08;;;;;;;16.30;8.73;;;3.60;56.10;;;3.35;46.72;95683.56;5073037;28;20489;-57
2022/03/24 04:25:36;;;;;;;21.87;9.30;;;3.50;55.50;;;3.32;46.47;95676.75;5073044;28;20481;-57
2022/03/24 04:28:04;;;;;;;19.30;9.00;;;3.50;55.30;;;3.31;47.22;95679.41;5067469;28;20475;-57
2022/03/24 04:30:31;;;;;;;33.97;9.73;;;3.50;55.60;;;3.29;46.82;95676.06;5068149;28;20577;-57
2022/03/24 04:32:59;;;;;;;39.27;9.30;;;3.50;55.60;;;3.29;47.23;95676.06;5076151;28;20485;-57
2022/03/24 04:35:27;;;;;;;17.53;8.30;;;3.50;56.00;;;3.29;46.43;95686.47;5069661;28;20835;-58
2022/03/24 04:37:55;;;;;;;21.50;9.77;;;3.50;56.10;;;3.26;46.00;95676.22;5074372;28;21034;-57
2022/03/24 04:40:24;;;;;;;21.57;8.27;;;3.50;55.90;;;3.26;46.92;95678.81;5077669;28;20458;-56
2022/03/24 04:42:53;;;;;;;28.97;8.97;;;3.50;55.90;;;3.24;45.99;95681.50;5068399;28;20963;-56
2022/03/24 04:45:21;;;;;;;18.97;9.50;;;3.40;55.80;;;3.25;46.13;95682.31;5070898;28;20542;-58
2022/03/24 04:47:49;;;;;;;15.33;8.03;;;3.40;55.80;;;3.27;46.05;95689.13;5075630;28;20474;-56
2022/03/24 04:50:17;;;;;;;22.53;10.47;;;3.50;56.00;;;3.29;46.01;95687.28;5069950;28;20506;-57
2022/03/24 04:52:45;;;;;;;28.40;11.53;;;3.50;55.90;;;3.33;46.57;95698.38;5074068;28;21071;-57
2022/03/24 04:55:14;;;;;;;43.60;10.70;;;3.50;56.00;;;3.33;47.06;95693.16;5079228;28;20457;-58
2022/03/24 04:57:41;;;;;;;16.50;9.03;;;3.50;56.10;;;3.34;47.08;95697.47;5070136;28;21073;-57
2022/03/24 05:00:10;;;;;;;20.40;10.00;;;3.50;56.30;;;3.34;46.82;95690.50;5066580;28;20505;-57
2022/03/24 05:02:38;;;;;;;21.50;10.70;;;3.50;56.60;;;3.35;46.47;95688.75;5077302;28;20556;-56
2022/03/24 05:05:07;;;;;;;22.33;10.53;;;3.50;56.60;;;3.36;47.28;95687.81;5065753;28;20480;-56
2022/03/24 05:07:34;;;;;;;27.83;11.57;;;3.60;56.80;;;3.40;47.07;95689.38;5071491;28;20486;-57
2022/03/24 05:10:01;;;;;;;35.50;16.17;;;3.60;56.60;;;3.44;46.48;95690.91;5074539;28;20860;-55
2022/03/24 05:12:31;;;;;;;42.30;18.77;;;3.60;56.80;;;3.52;47.34;95691.34;5071648;28;20474;-57
2022/03/24 05:14:58;;;;;;;39.83;18.50;;;3.70;56.90;;;3.67;47.03;95696.69;5076260;28;20562;-56
2022/03/24 05:17:26;;;;;;;35.03;15.17;;;3.80;57.00;;;3.87;47.01;95685.28;5063667;28;20479;-56
2022/03/24 05:19:53;;;;;;;22.43;12.30;;;4.00;57.20;;;4.08;46.60;95689.38;5070000;28;20544;-56
2022/03/24 05:22:21;;;;;;;28.40;13.77;;;4.20;56.70;;;4.21;45.75;95696.53;5073052;28;21013;-57
2022/03/24 05:24:48;;;;;;;19.60;11.70;;;4.40;56.20;;;4.29;46.76;95697.84;5067045;28;20458;-57
2022/03/24 05:27:16;;;;;;;21.10;11.33;;;4.40;56.20;;;4.37;45.78;95689.63;5068012;28;20475;-55
2022/03/24 05:29:44;;;;;;;21.33;11.60;;;4.50;55.70;;;4.41;45.58;95691.09;5072233;28;20498;-56
2022/03/24 05:32:12;;;;;;;23.37;10.57;;;4.60;55.60;;;4.45;45.63;95694.41;5066946;28;20466;-57
2022/03/24 05:34:39;;;;;;;22.33;11.60;;;4.60;55.40;;;4.47;45.60;95695.16;5072790;28;20904;-56
2022/03/24 05:37:06;;;;;;;25.30;11.57;;;4.60;55.50;;;4.52;45.81;95697.53;5079038;28;20884;-57
2022/03/24 05:39:34;;;;;;;25.73;13.47;;;4.70;55.50;;;4.54;45.79;95691.31;5063512;28;20825;-57
2022/03/24 05:42:02;;;;;;;25.37;12.67;;;4.70;55.30;;;4.57;45.67;95691.16;5069839;28;20470;-58
2022/03/24 05:44:30;;;;;;;40.60;17.20;;;4.70;55.10;;;4.60;46.25;95688.38;5074326;28;21123;-59
2022/03/24 05:46:59;;;;;;;39.93;19.17;;;4.80;55.60;;;4.63;45.52;95690.81;5061650;28;20478;-57
2022/03/24 05:49:26;;;;;;;41.07;17.83;;;4.80;55.30;;;4.66;45.69;95688.03;5064705;28;20519;-57
2022/03/24 05:51:54;;;;;;;50.53;22.03;;;4.80;55.20;;;4.71;45.54;95679.13;5079118;28;20462;-56
2022/03/24 05:54:21;;;;;;;43.93;21.50;;;4.90;55.30;;;4.81;45.41;95682.91;5061154;28;20497;-56
2022/03/24 05:56:49;;;;;;;44.50;21.30;;;4.90;55.20;;;4.93;45.16;95684.84;5075467;28;20475;-56
2022/03/24 05:59:17;;;;;;;47.93;20.87;;;5.00;55.20;;;5.12;45.27;95689.03;5074779;28;20517;-58
2022/03/24 06:01:46;;;;;;;44.33;20.50;;;5.10;55.70;;;5.31;45.18;95688.81;5068526;28;20567;-56
2022/03/24 06:04:15;;;;;;;41.10;16.40;;;5.30;55.00;;;5.54;44.85;95692.72;5075896;28;20490;-57
2022/03/24 06:06:43;;;;;;;33.00;15.70;;;5.50;54.50;;;5.78;44.31;95687.84;5079059;28;20538;-58
2022/03/24 06:09:11;;;;;;;30.13;13.90;;;5.70;54.60;;;6.03;43.78;95684.63;5068010;28;20494;-57
2022/03/24 06:11:38;;;;;;;38.37;17.47;;;6.00;54.30;;;6.27;43.83;95684.94;5072612;28;20475;-57
2022/03/24 06:14:07;;;;;;;39.63;16.07;;;6.20;53.80;;;6.54;43.41;95683.34;5074781;28;20451;-58
2022/03/24 06:16:35;;;;;;;25.63;11.40;;;6.50;53.40;;;6.80;42.83;95686.91;5068966;28;20477;-57
2022/03/24 06:19:02;;;;;;;23.90;12.80;;;6.70;53.50;;;7.03;42.75;95685.47;5075074;28;20461;-57
2022/03/24 06:21:31;;;;;;;21.83;11.10;;;6.90;52.50;;;7.27;42.70;95679.63;5072161;28;20466;-57
2022/03/24 06:23:58;;;;;;;22.43;9.80;;;7.20;52.20;;;7.52;42.16;95668.38;5070776;28;20568;-56
2022/03/24 06:26:26;;;;;;;32.87;12.30;;;7.40;51.70;;;7.80;41.52;95680.47;5073636;28;20450;-57
2022/03/24 06:28:53;;;;;;;27.33;12.20;;;7.70;51.40;;;8.10;41.75;95675.88;5073072;28;20544;-57
2022/03/24 06:31:21;;;;;;;29.67;10.90;;;7.90;51.00;;;8.37;41.16;95670.53;5073247;28;20478;-59
2022/03/24 06:33:48;;;;;;;19.50;9.80;;;8.20;50.60;;;8.69;40.45;95683.19;5079926;28;20533;-58
2022/03/24 06:36:16;;;;;;;37.27;13.07;;;8.50;50.10;;;8.99;40.70;95672.31;5061149;28;20446;-58
2022/03/24 06:38:45;;;;;;;37.43;13.27;;;8.80;49.90;;;9.35;40.19;95678.44;5074622;28;20533;-56
2022/03/24 06:41:14;;;;;;;28.30;13.93;;;9.10;49.40;;;9.63;39.21;95660.66;5077040;28;20565;-58
2022/03/24 06:43:42;;;;;;;41.27;16.27;;;9.50;48.60;;;9.91;39.13;95667.28;5067519;28;20451;-58
2022/03/24 06:46:09;;;;;;;31.67;15.50;;;9.70;48.40;;;10.24;38.30;95676.22;5073171;28;20625;-58
2022/03/24 06:48:37;;;;;;;35.63;17.10;;;10.00;46.80;;;10.57;38.22;95666.69;5081251;28;20503;-57
2022/03/24 06:51:06;;;;;;;47.20;19.80;;;10.30;46.60;;;10.89;37.67;95666.78;5068863;28;20451;-58
2022/03/24 06:53:33;;;;;;;37.97;19.40;;;10.70;45.90;;;11.19;37.22;95659.19;5063994;28;20470;-58
2022/03/24 06:56:02;;;;;;;70.87;25.67;;;11.00;45.30;;;11.48;36.97;95657.63;5071235;28;20514;-56
2022/03/24 06:58:29;;;;;;;53.77;23.70;;;11.30;45.10;;;11.87;36.50;95661.53;5065885;28;20475;-56
2022/03/24 07:00:57;;;;;;;50.53;20.90;;;11.60;45.00;;;12.26;36.03;95657.38;5075579;28;20450;-59
2022/03/24 07:03:24;;;;;;;46.90;23.10;;;12.00;44.00;;;12.64;35.40;95652.38;5078795;28;20500;-59
2022/03/24 07:05:51;;;;;;;51.63;23.40;;;12.40;43.60;;;13.00;34.91;95652.81;5070213;28;20458;-57
2022/03/24 07:08:18;;;;;;;51.80;22.60;;;12.70;43.10;;;13.37;34.48;95657.47;5075345;28;21012;-58
2022/03/24 07:10:46;;;;;;;43.43;20.43;;;13.10;42.70;;;13.72;34.16;95650.81;5073860;28;20603;-56
2022/03/24 07:13:14;;;;;;;35.17;17.83;;;13.40;42.20;;;14.09;34.08;95655.38;5066985;28;21033;-58
2022/03/24 07:15:42;;;;;;;33.70;17.93;;;13.80;42.20;;;14.48;33.30;95648.16;5077711;28;20453;-57
2022/03/24 07:18:10;;;;;;;47.83;15.27;;;14.20;41.60;;;14.93;32.94;95646.59;5073833;28;20843;-57
2022/03/24 07:20:37;;;;;;;29.17;14.50;;;14.60;41.00;;;15.35;32.50;95650.53;5070765;28;21078;-57
2022/03/24 07:23:06;;;;;;;31.97;14.17;;;15.00;40.70;;;15.76;31.96;95648.28;5076210;28;20493;-57
2022/03/24 07:25:34;;;;;;;26.50;14.10;;;15.40;39.80;;;16.17;31.56;95640.63;5078027;28;20450;-59
2022/03/24 07:28:01;;;;;;;30.67;12.83;;;15.90;39.40;;;16.56;31.16;95642.91;5073706;28;20945;-58
2022/03/24 07:30:30;;;;;;;30.83;12.00;;;16.20;39.00;;;16.97;31.06;95647.59;5077333;28;20493;-58
2022/03/24 07:32:58;;;;;;;33.17;13.30;;;16.60;38.60;;;17.42;30.19;95654.38;5073063;28;20470;-57
2022/03/24 07:35:26;;;;;;;36.43;15.13;;;17.00;38.30;;;17.87;29.97;95645.09;5075543;28;20485;-59
2022/03/24 07:37:53;;;;;;;66.07;16.17;;;17.50;37.70;;;18.36;30.30;95643.47;5074397;28;20550;-58
2022/03/24 07:40:22;;;;;;;45.53;15.37;;;18.00;37.80;;;18.88;29.59;95648.34;5074993;28;20447;-57
2022/03/24 07:42:52;;;;;;;26.20;14.53;;;18.50;36.90;;;19.40;29.04;95644.28;5076554;28;20837;-56
2022/03/24 07:45:19;;;;;;;31.50;14.80;;;19.00;37.10;;;19.92;28.85;95639.28;5082261;28;20453;-59
2022/03/24 07:48:25;;;;;;;41.17;17.50;;;19.50;36.10;;;20.54;26.86;95638.22;5066948;28;20473;-60
2022/03/24 07:50:53;;;;;;;53.60;15.57;;;20.20;34.90;;;21.02;27.40;95644.09;5020361;28;20483;-57
2022/03/24 07:53:40;;;;;;;38.37;14.60;;;20.80;35.10;;;21.52;27.11;95646.97;5017066;28;20470;-60
2022/03/24 07:56:08;;;;;;;38.10;13.80;;;21.30;34.50;;;21.95;25.39;95636.28;5047500;28;21028;-67
2022/03/24 07:58:36;;;;;;;46.13;14.67;;;21.80;33.00;;;22.36;25.37;95634.78;5078793;28;20477;-57
2022/03/24 08:01:03;;;;;;;35.87;13.90;;;22.30;32.90;;;22.73;25.90;95638.97;5077242;28;20448;-58
2022/03/24 08:03:32;;;;;;;31.77;14.70;;;22.80;33.10;;;23.15;25.53;95633.66;5073256;28;20489;-57
2022/03/24 08:06:01;;;;;;;34.33;12.60;;;23.20;32.50;;;23.58;24.83;95629.91;5077511;28;20457;-61
2022/03/24 08:08:28;;;;;;;25.37;11.43;;;23.60;31.80;;;23.99;24.26;95635.16;5066631;28;20523;-59
2022/03/24 08:10:55;;;;;;;26.57;11.27;;;24.00;31.10;;;24.38;23.90;95623.78;5075876;28;20494;-57
2022/03/24 08:13:23;;;;;;;22.23;11.07;;;24.30;30.50;;;24.68;24.18;95625.03;5078194;28;21021;-57
2022/03/24 08:15:51;;;;;;;15.63;10.97;;;24.70;31.00;;;25.03;23.55;95631.97;5070046;28;20850;-57
2022/03/24 08:18:18;;;;;;;28.43;10.40;;;24.90;30.60;;;25.35;23.58;95630.25;5073603;28;20477;-57
2022/03/24 08:20:48;;;;;;;21.43;9.93;;;25.20;30.00;;;25.53;22.90;95626.00;5083101;28;20461;-57
2022/03/24 08:23:16;;;;;;;18.40;9.70;;;25.50;28.30;;;25.63;22.04;95618.31;5072538;28;20469;-58
2022/03/24 08:25:44;;;;;;;14.50;8.67;;;25.70;27.60;;;25.69;22.54;95609.34;5076278;28;20473;-59
2022/03/24 08:28:13;;;;;;;17.10;9.60;;;25.80;28.70;;;25.87;22.84;95605.94;5079887;28;21052;-59
2022/03/24 08:30:41;;;;;;;24.40;11.00;;;25.90;29.20;;;26.12;22.93;95608.69;5063042;28;20569;-58
2022/03/24 08:33:10;;;;;;;24.00;9.00;;;26.20;29.20;;;26.43;22.09;95609.66;5074786;28;20474;-58
2022/03/24 08:35:37;;;;;;;33.37;9.17;;;26.50;28.70;;;26.72;20.41;95603.81;5081840;28;20457;-62
2022/03/24 08:38:06;;;;;;;12.83;7.23;;;26.70;26.50;;;26.85;21.81;95601.00;5072072;28;20462;-58
2022/03/24 08:40:33;;;;;;;22.27;8.70;;;26.90;28.20;;;27.04;21.48;95599.13;5070617;28;20719;-58
2022/03/24 08:43:01;;;;;;;20.50;9.80;;;27.00;28.00;;;27.29;21.21;95595.50;5079183;28;20889;-56
2022/03/24 08:45:28;;;;;;;18.97;7.33;;;27.20;28.00;;;27.48;20.10;95596.31;5072832;28;20888;-59
2022/03/24 08:47:56;;;;;;;10.43;7.33;;;27.30;26.40;;;27.45;20.56;95589.50;5077854;28;20527;-57
2022/03/24 08:50:24;;;;;;;11.57;7.60;;;27.30;26.10;;;27.40;20.43;95592.06;5076381;28;20499;-56
2022/03/24 08:52:51;;;;;;;12.93;7.67;;;27.30;26.30;;;27.22;19.20;95583.94;5067516;28;21055;-60
2022/03/24 08:55:21;;;;;;;20.07;7.80;;;27.10;24.30;;;26.90;17.94;95584.94;5074065;28;20457;-57
2022/03/24 08:57:48;;;;;;;15.33;7.83;;;26.80;24.20;;;26.59;18.86;95586.69;5078873;28;20471;-58
2022/03/24 09:00:17;;;;;;;16.00;8.23;;;26.40;24.50;;;26.25;18.91;95582.66;5072567;28;20958;-58
2022/03/24 09:02:46;;;;;;;13.70;8.47;;;26.00;24.50;;;26.16;19.48;95589.38;5079319;28;20519;-60
2022/03/24 09:05:13;;;;;;;8.33;6.40;;;25.80;25.70;;;26.15;19.31;95579.63;5066552;28;20828;-58
2022/03/24 09:07:41;;;;;;;21.93;6.83;;;25.70;25.10;;;26.17;20.19;95580.25;5073914;28;20549;-59
2022/03/24 09:10:10;;;;;;;18.00;7.63;;;25.70;25.90;;;26.28;19.99;95577.63;5079323;28;20809;-58
2022/03/24 09:12:40;;;;;;;14.93;6.90;;;25.80;26.10;;;26.34;18.84;95570.53;5073141;28;20524;-58
2022/03/24 09:15:09;;;;;;;8.57;6.00;;;25.90;24.80;;;26.22;19.02;95586.59;5074769;28;20461;-57
2022/03/24 09:17:37;;;;;;;16.90;6.20;;;25.80;24.90;;;26.24;19.47;95568.34;5076432;28;20466;-58
2022/03/24 09:20:05;;;;;;;16.80;6.63;;;25.80;25.40;;;26.38;19.25;95573.59;5065352;28;20979;-58
2022/03/24 09:22:32;;;;;;;17.73;6.77;;;25.90;25.00;;;26.56;19.47;95570.13;5076355;28;20901;-57
2022/03/24 09:24:59;;;;;;;11.90;6.30;;;26.00;25.70;;;26.83;18.74;95565.28;5081814;28;20453;-59
2022/03/24 09:27:27;;;;;;;17.47;6.70;;;26.30;25.10;;;27.06;18.44;95563.78;5066297;28;20474;-57
2022/03/24 09:29:55;;;;;;;13.57;7.20;;;26.50;25.10;;;27.27;17.87;95552.50;5075896;28;20489;-57
2022/03/24 09:32:23;;;;;;;20.30;7.30;;;26.70;23.80;;;27.40;18.67;95548.81;5082886;28;20532;-58
2022/03/24 09:34:51;;;;;;;8.63;6.60;;;26.90;24.90;;;27.58;18.71;95555.25;5070965;28;20999;-59
2022/03/24 09:37:18;;;;;;;13.13;6.37;;;27.00;24.40;;;27.76;17.65;95543.53;5077129;28;20857;-58
2022/03/24 09:39:46;;;;;;;18.20;6.47;;;27.20;24.40;;;27.81;17.64;95544.50;5075222;28;20508;-59
2022/03/24 09:42:13;;;;;;;15.00;6.50;;;27.30;22.90;;;27.72;17.28;95540.47;5070603;28;20481;-58
2022/03/24 09:44:41;;;;;;;10.40;6.10;;;27.30;23.20;;;27.69;17.73;95544.47;5076821;28;20488;-60
2022/03/24 09:47:12;;;;;;;18.63;5.90;;;27.30;23.80;;;27.81;17.70;95536.38;5081423;28;20483;-57
2022/03/24 09:49:40;;;;;;;13.37;5.93;;;27.30;23.60;;;27.95;17.84;95528.03;5071733;28;20511;-59
2022/03/24 09:52:08;;;;;;;12.90;5.30;;;27.40;23.80;;;28.14;17.38;95535.03;5077151;28;20514;-58
2022/03/24 09:54:35;;;;;;;13.30;6.97;;;27.60;23.20;;;28.18;17.40;95521.88;5073328;28;20454;-58
2022/03/24 09:57:07;;;;;;;12.10;6.37;;;27.60;23.10;;;28.15;17.85;95523.19;5073431;28;20489;-56
2022/03/24 09:59:34;;;;;;;10.10;6.47;;;27.60;22.80;;;28.18;16.72;95517.31;5079552;28;20450;-58
2022/03/24 10:02:02;;;;;;;12.80;6.87;;;27.60;22.50;;;28.21;17.24;95516.81;5072897;28;20540;-58
2022/03/24 10:04:44;;;;;;;10.63;6.90;;;27.70;23.10;;;28.32;17.24;95512.47;5069071;28;20455;-58
2022/03/24 10:07:11;;;;;;;15.87;5.93;;;27.80;22.50;;;28.48;16.98;95515.53;5080432;28;20480;-57
2022/03/24 10:09:40;;;;;;;10.17;7.10;;;27.90;22.90;;;28.44;16.82;95507.88;5074043;28;20558;-58
2022/03/24 10:12:09;;;;;;;14.50;6.30;;;27.90;22.10;;;28.32;16.42;95514.34;5057895;28;21007;-59
2022/03/24 10:14:36;;;;;;;17.90;6.27;;;27.80;22.20;;;28.31;16.71;95504.59;5081380;28;20485;-58
2022/03/24 10:17:08;;;;;;;13.30;7.13;;;27.70;22.30;;;28.34;16.17;95512.25;5065021;28;20520;-57
2022/03/24 10:19:36;;;;;;;12.27;6.37;;;27.80;21.80;;;28.35;16.40;95503.03;5074768;28;20449;-57
2022/03/24 10:22:11;;;;;;;15.17;7.37;;;27.80;21.90;;;28.39;16.67;95496.94;5080745;28;20500;-59
2022/03/24 10:24:43;;;;;;;15.00;6.27;;;27.80;22.20;;;28.42;16.25;95490.22;5064849;28;20521;-58
2022/03/24 10:27:13;;;;;;;10.17;6.47;;;27.90;22.30;;;28.55;16.33;95484.56;5071329;28;20477;-57